Time;durP1;ratioP1;P1;durP2;ratioP2;P2;SDS_P1;SDS_P2;PMS_P1;PMS_P2;Temp;Humidity;BMP_temperature;BMP_pressure;BME280_temperature;BME280_humidity;BME280_pressure;Samples;Min_cycle;Max_cycle;Signal;HPM_P1;HPM_P2
2022/01/29 00:00:17;;;;;;;1.85;0.60;;;;;;;;;;5001791;28;20092;-52
2022/01/29 00:02:43;;;;;;;4.03;1.15;;;;;;;;;;5000753;28;20505;-49
2022/01/29 00:05:09;;;;;;;11.35;0.70;;;;;;;;;;5002445;28;20029;-53
2022/01/29 00:07:38;;;;;;;0.77;0.32;;;;;;;;;;5008358;28;20042;-54
2022/01/29 00:10:05;;;;;;;2.47;0.50;;;;;;;;;;5001739;28;20052;-54
2022/01/29 00:12:31;;;;;;;1.17;0.73;;;;;;;;;;5004232;28;20030;-50
2022/01/29 00:14:57;;;;;;;2.20;0.50;;;;;;;;;;5009687;28;20490;-50
2022/01/29 00:17:22;;;;;;;1.77;0.50;;;;;;;;;;5002764;28;20030;-54
2022/01/29 00:19:48;;;;;;;1.60;0.43;;;;;;;;;;5004159;28;20072;-52
2022/01/29 00:22:13;;;;;;;1.23;0.30;;;;;;;;;;4998678;28;21179;-53
2022/01/29 00:24:39;;;;;;;1.75;0.50;;;;;;;;;;5007403;28;20029;-53
2022/01/29 00:27:09;;;;;;;2.03;0.40;;;;;;;;;;4998712;28;20037;-50
2022/01/29 00:29:37;;;;;;;0.70;0.30;;;;;;;;;;5001905;28;20698;-53
2022/01/29 00:32:04;;;;;;;1.00;0.60;;;;;;;;;;5005016;28;20401;-53
2022/01/29 00:34:29;;;;;;;3.35;0.45;;;;;;;;;;5006252;28;20040;-49
2022/01/29 00:36:55;;;;;;;1.70;0.30;;;;;;;;;;5003229;28;20389;-49
2022/01/29 00:39:20;;;;;;;5.60;0.30;;;;;;;;;;5001164;28;20480;-52
2022/01/29 00:41:46;;;;;;;6.80;0.50;;;;;;;;;;5002732;28;20042;-52
2022/01/29 00:44:11;;;;;;;3.88;1.27;;;;;;;;;;5001821;28;20045;-49
2022/01/29 00:46:41;;;;;;;4.60;0.68;;;;;;;;;;4997741;28;20127;-50
2022/01/29 00:49:07;;;;;;;1.92;0.30;;;;;;;;;;4995095;28;20068;-51
2022/01/29 00:51:32;;;;;;;9.38;0.80;;;;;;;;;;5005780;28;20444;-53
2022/01/29 00:53:58;;;;;;;3.90;0.80;;;;;;;;;;4999420;28;20054;-49
2022/01/29 00:56:23;;;;;;;3.40;0.57;;;;;;;;;;5004307;28;20108;-51
2022/01/29 00:58:49;;;;;;;0.88;0.40;;;;;;;;;;4999075;28;20078;-54
2022/01/29 01:01:14;;;;;;;0.50;0.10;;;;;;;;;;4985546;28;20148;-49
2022/01/29 01:03:40;;;;;;;2.03;0.60;;;;;;;;;;5000599;28;20029;-49
2022/01/29 01:06:05;;;;;;;0.17;0.10;;;;;;;;;;5000426;28;20036;-54
2022/01/29 01:08:31;;;;;;;2.08;0.25;;;;;;;;;;5002596;28;20032;-52
2022/01/29 01:10:57;;;;;;;2.60;0.50;;;;;;;;;;4984185;28;20030;-53
2022/01/29 01:13:23;;;;;;;1.50;0.17;;;;;;;;;;5001333;28;20050;-49
2022/01/29 01:15:49;;;;;;;2.00;0.10;;;;;;;;;;5004947;28;20468;-48
2022/01/29 01:18:14;;;;;;;0.63;0.20;;;;;;;;;;4985140;28;20061;-52
2022/01/29 01:20:40;;;;;;;5.63;0.43;;;;;;;;;;4996948;28;20062;-54
2022/01/29 01:23:06;;;;;;;4.50;0.40;;;;;;;;;;4997608;28;20125;-50
2022/01/29 01:25:31;;;;;;;9.90;0.82;;;;;;;;;;5001770;28;20044;-54
2022/01/29 01:27:57;;;;;;;1.50;0.45;;;;;;;;;;4982953;28;20042;-52
2022/01/29 01:30:23;;;;;;;3.45;0.55;;;;;;;;;;5004849;28;20413;-55
2022/01/29 01:32:48;;;;;;;6.35;0.88;;;;;;;;;;5002839;28;20610;-55
2022/01/29 01:35:21;;;;;;;1.08;0.30;;;;;;;;;;5003191;28;20029;-52
2022/01/29 01:37:52;;;;;;;3.97;0.68;;;;;;;;;;4997899;28;20414;-53
2022/01/29 01:40:19;;;;;;;7.05;0.85;;;;;;;;;;5003517;28;20066;-55
2022/01/29 01:42:44;;;;;;;5.80;0.60;;;;;;;;;;4999510;28;20050;-52
2022/01/29 01:45:10;;;;;;;8.77;1.67;;;;;;;;;;5002014;28;20145;-54
2022/01/29 01:47:36;;;;;;;8.45;0.80;;;;;;;;;;4998438;28;20038;-50
2022/01/29 01:50:03;;;;;;;7.15;0.73;;;;;;;;;;5001551;28;20030;-52
2022/01/29 01:52:28;;;;;;;4.22;0.40;;;;;;;;;;4975606;28;20038;-53
2022/01/29 01:54:54;;;;;;;4.25;0.52;;;;;;;;;;4998163;28;20103;-53
2022/01/29 01:57:19;;;;;;;7.60;0.52;;;;;;;;;;5002722;28;20034;-54
2022/01/29 01:59:45;;;;;;;9.68;0.70;;;;;;;;;;4999174;28;20042;-54
2022/01/29 02:02:10;;;;;;;10.15;0.95;;;;;;;;;;4994419;28;20037;-53
2022/01/29 02:04:37;;;;;;;4.07;0.60;;;;;;;;;;4997914;28;20590;-51
2022/01/29 02:07:04;;;;;;;13.07;0.65;;;;;;;;;;4999542;28;21067;-52
2022/01/29 02:09:30;;;;;;;8.05;0.80;;;;;;;;;;4999539;28;20034;-50
2022/01/29 02:11:58;;;;;;;9.00;1.15;;;;;;;;;;4998986;28;21514;-49
2022/01/29 02:14:28;;;;;;;4.63;1.02;;;;;;;;;;4997966;28;20532;-48
2022/01/29 02:16:54;;;;;;;16.77;1.20;;;;;;;;;;4985261;28;20082;-48
2022/01/29 02:19:20;;;;;;;10.43;1.92;;;;;;;;;;5003171;28;20131;-50
2022/01/29 02:21:45;;;;;;;11.10;1.40;;;;;;;;;;4999283;28;20552;-54
2022/01/29 02:24:11;;;;;;;8.48;0.77;;;;;;;;;;5000225;28;20418;-53
2022/01/29 02:26:37;;;;;;;26.33;1.90;;;;;;;;;;5002724;28;20065;-52
2022/01/29 02:29:03;;;;;;;4.88;0.85;;;;;;;;;;4998683;28;20034;-55
2022/01/29 02:31:28;;;;;;;15.55;1.30;;;;;;;;;;4996627;28;20417;-55
2022/01/29 02:33:54;;;;;;;15.40;2.30;;;;;;;;;;5003169;28;21387;-51
2022/01/29 02:36:20;;;;;;;11.57;2.05;;;;;;;;;;4997512;28;20062;-50
2022/01/29 02:38:45;;;;;;;21.27;2.58;;;;;;;;;;5002381;28;20481;-51
2022/01/29 02:41:11;;;;;;;13.25;1.52;;;;;;;;;;4998476;28;20116;-51
2022/01/29 02:43:43;;;;;;;13.45;2.15;;;;;;;;;;5000627;28;20083;-52
2022/01/29 02:48:52;;;;;;;7.80;1.02;;;;;;;;;;5002595;28;20049;-51
2022/01/29 02:51:19;;;;;;;19.98;1.58;;;;;;;;;;5001671;28;20033;-48
2022/01/29 02:53:45;;;;;;;25.00;3.75;;;;;;;;;;5004767;28;20076;-54
2022/01/29 02:56:11;;;;;;;13.13;2.35;;;;;;;;;;5002000;28;20041;-51
2022/01/29 02:58:37;;;;;;;12.75;2.00;;;;;;;;;;5002880;28;20030;-47
2022/01/29 03:01:04;;;;;;;25.10;1.60;;;;;;;;;;5001562;28;20285;-54
2022/01/29 03:03:29;;;;;;;12.80;1.60;;;;;;;;;;4998962;28;20076;-54
2022/01/29 03:05:55;;;;;;;10.52;0.85;;;;;;;;;;5005715;28;20440;-54
2022/01/29 03:08:20;;;;;;;15.43;1.48;;;;;;;;;;5003311;28;20314;-56
2022/01/29 03:10:49;;;;;;;22.30;1.70;;;;;;;;;;5003885;28;20411;-53
2022/01/29 03:13:16;;;;;;;29.05;2.05;;;;;;;;;;4998840;28;20084;-53
2022/01/29 03:15:41;;;;;;;21.50;1.42;;;;;;;;;;5004725;28;20030;-50
2022/01/29 03:18:07;;;;;;;13.55;1.05;;;;;;;;;;4999265;28;20037;-52
2022/01/29 03:20:32;;;;;;;16.05;1.80;;;;;;;;;;5004768;28;20037;-51
2022/01/29 03:22:59;;;;;;;13.32;1.70;;;;;;;;;;5000935;28;20030;-50
2022/01/29 03:25:24;;;;;;;11.52;1.77;;;;;;;;;;4984919;28;20069;-49
2022/01/29 03:27:50;;;;;;;31.33;1.88;;;;;;;;;;5002808;28;20068;-54
2022/01/29 03:30:15;;;;;;;15.00;1.77;;;;;;;;;;5001019;28;20397;-48
2022/01/29 03:32:42;;;;;;;19.15;1.63;;;;;;;;;;5003887;28;20158;-50
2022/01/29 03:35:08;;;;;;;20.08;2.67;;;;;;;;;;5001742;28;20022;-50
2022/01/29 03:37:34;;;;;;;23.55;2.28;;;;;;;;;;5003915;28;20279;-50
2022/01/29 03:40:02;;;;;;;17.75;1.58;;;;;;;;;;4987235;28;20584;-52
2022/01/29 03:42:32;;;;;;;25.33;1.90;;;;;;;;;;5002393;28;20042;-52
2022/01/29 03:44:58;;;;;;;18.35;3.35;;;;;;;;;;5007309;28;20026;-53
2022/01/29 03:47:24;;;;;;;14.98;2.22;;;;;;;;;;4996150;28;20034;-53
2022/01/29 03:49:49;;;;;;;16.65;1.70;;;;;;;;;;5001650;28;20371;-53
2022/01/29 03:52:15;;;;;;;25.35;2.17;;;;;;;;;;5003447;28;20026;-53
2022/01/29 03:54:41;;;;;;;30.42;2.00;;;;;;;;;;5002953;28;20033;-53
2022/01/29 03:57:07;;;;;;;17.27;1.70;;;;;;;;;;5003456;28;20057;-53
2022/01/29 03:59:32;;;;;;;27.27;1.90;;;;;;;;;;5000738;28;20040;-53
2022/01/29 04:01:57;;;;;;;21.67;2.58;;;;;;;;;;5001846;28;20485;-54
2022/01/29 04:04:23;;;;;;;17.33;2.08;;;;;;;;;;5001962;28;20983;-53
2022/01/29 04:06:50;;;;;;;27.48;2.22;;;;;;;;;;5006953;28;20038;-53
2022/01/29 04:09:17;;;;;;;13.10;1.00;;;;;;;;;;5000659;28;20033;-52
2022/01/29 04:11:43;;;;;;;8.05;1.38;;;;;;;;;;5001166;28;20026;-54
2022/01/29 04:14:15;;;;;;;34.10;4.43;;;;;;;;;;4998689;28;20057;-53
2022/01/29 04:16:41;;;;;;;15.57;2.53;;;;;;;;;;5003529;28;20026;-53
2022/01/29 04:19:06;;;;;;;12.30;1.52;;;;;;;;;;5002517;28;20064;-53
2022/01/29 04:21:32;;;;;;;16.27;1.98;;;;;;;;;;4985863;28;20408;-54
2022/01/29 04:23:57;;;;;;;15.68;1.75;;;;;;;;;;5004026;28;20056;-54
2022/01/29 04:26:23;;;;;;;18.83;2.28;;;;;;;;;;5003215;28;20441;-51
2022/01/29 04:28:49;;;;;;;16.00;1.60;;;;;;;;;;5007929;28;20511;-50
2022/01/29 04:31:18;;;;;;;14.15;1.40;;;;;;;;;;5002439;28;20613;-48
2022/01/29 04:33:45;;;;;;;18.67;2.10;;;;;;;;;;5001527;28;20050;-51
2022/01/29 04:36:11;;;;;;;17.08;1.92;;;;;;;;;;5001615;28;20334;-53
2022/01/29 04:38:36;;;;;;;20.38;2.35;;;;;;;;;;5004061;28;20041;-49
2022/01/29 04:41:04;;;;;;;12.73;1.70;;;;;;;;;;5001622;28;20401;-53
2022/01/29 04:43:36;;;;;;;15.15;0.82;;;;;;;;;;5000018;28;20068;-51
2022/01/29 04:46:02;;;;;;;10.18;1.30;;;;;;;;;;5002944;28;20033;-53
2022/01/29 04:48:28;;;;;;;13.60;1.42;;;;;;;;;;5000589;28;20049;-49
2022/01/29 04:50:54;;;;;;;19.80;1.50;;;;;;;;;;5004869;28;20057;-50
2022/01/29 04:53:20;;;;;;;14.30;1.02;;;;;;;;;;4999511;28;20034;-51
2022/01/29 04:55:46;;;;;;;15.95;1.75;;;;;;;;;;5003424;28;22679;-48
2022/01/29 04:58:11;;;;;;;24.70;2.35;;;;;;;;;;5001189;28;20029;-48
2022/01/29 05:00:37;;;;;;;17.55;1.77;;;;;;;;;;5000068;28;20489;-52
2022/01/29 05:03:08;;;;;;;19.05;2.13;;;;;;;;;;4991025;28;20031;-48
2022/01/29 05:05:34;;;;;;;20.65;2.08;;;;;;;;;;5003902;28;20025;-54
2022/01/29 05:08:00;;;;;;;19.92;1.15;;;;;;;;;;4997880;28;20084;-52
2022/01/29 05:10:25;;;;;;;23.08;2.28;;;;;;;;;;4998313;28;20033;-53
2022/01/29 05:12:56;;;;;;;17.17;1.77;;;;;;;;;;4999921;28;20073;-48
2022/01/29 05:15:31;;;;;;;22.35;1.50;;;;;;;;;;4998655;28;20144;-53
2022/01/29 05:28:52;;;;;;;13.25;1.15;;;;;;;;;;5000040;28;20036;-51
2022/01/29 05:31:17;;;;;;;20.42;1.40;;;;;;;;;;5000428;28;20022;-52
2022/01/29 05:33:43;;;;;;;12.88;1.70;;;;;;;;;;5001413;28;20040;-52
2022/01/29 05:36:08;;;;;;;14.45;2.08;;;;;;;;;;5003136;28;20441;-49
2022/01/29 05:38:34;;;;;;;20.05;2.25;;;;;;;;;;4996783;28;20523;-49
2022/01/29 05:41:02;;;;;;;16.95;1.75;;;;;;;;;;4999912;28;20032;-50
2022/01/29 05:43:28;;;;;;;22.13;1.33;;;;;;;;;;5004450;28;20366;-52
2022/01/29 05:45:53;;;;;;;19.08;2.13;;;;;;;;;;5003074;28;20045;-50
2022/01/29 05:48:19;;;;;;;39.58;2.25;;;;;;;;;;5003388;28;20033;-50
2022/01/29 05:50:44;;;;;;;12.02;1.35;;;;;;;;;;4978440;28;20521;-50
2022/01/29 05:53:10;;;;;;;16.98;1.80;;;;;;;;;;5002426;28;20030;-53
2022/01/29 05:55:35;;;;;;;31.67;1.92;;;;;;;;;;4981628;28;20050;-50
2022/01/29 05:58:01;;;;;;;20.48;1.63;;;;;;;;;;5002106;28;20399;-49
2022/01/29 06:00:26;;;;;;;17.75;1.70;;;;;;;;;;5000599;28;20030;-53
2022/01/29 06:03:07;;;;;;;15.90;2.15;;;;;;;;;;5003221;28;20041;-52
2022/01/29 06:05:34;;;;;;;17.73;1.92;;;;;;;;;;5004667;28;20037;-52
2022/01/29 06:07:59;;;;;;;30.20;2.47;;;;;;;;;;5007061;28;20056;-52
2022/01/29 06:10:26;;;;;;;23.90;2.53;;;;;;;;;;5000946;28;20473;-49
2022/01/29 06:13:09;;;;;;;14.75;1.40;;;;;;;;;;4999481;28;20441;-53
2022/01/29 06:15:46;;;;;;;22.73;1.92;;;;;;;;;;5004902;28;20052;-51
2022/01/29 06:18:17;;;;;;;22.80;2.60;;;;;;;;;;5005113;28;20487;-52
2022/01/29 06:20:44;;;;;;;17.20;1.23;;;;;;;;;;5004809;28;20029;-51
2022/01/29 06:23:11;;;;;;;21.08;1.92;;;;;;;;;;4998951;28;20065;-52
2022/01/29 06:25:37;;;;;;;16.13;1.88;;;;;;;;;;5005654;28;20088;-50
2022/01/29 06:28:03;;;;;;;24.25;2.10;;;;;;;;;;4987212;28;20029;-52
2022/01/29 06:30:29;;;;;;;28.27;4.05;;;;;;;;;;5004967;28;20049;-52
2022/01/29 06:32:55;;;;;;;23.83;3.08;;;;;;;;;;5002260;28;20066;-53
2022/01/29 06:35:20;;;;;;;31.85;2.40;;;;;;;;;;4999708;28;20079;-54
2022/01/29 06:37:46;;;;;;;22.52;2.40;;;;;;;;;;5009691;28;20060;-51
2022/01/29 06:40:12;;;;;;;26.13;1.98;;;;;;;;;;5003054;28;20029;-53
2022/01/29 06:42:38;;;;;;;18.42;2.40;;;;;;;;;;5004130;28;20038;-52
2022/01/29 06:45:05;;;;;;;45.13;2.97;;;;;;;;;;5010237;28;20532;-54
2022/01/29 06:47:31;;;;;;;28.17;3.33;;;;;;;;;;5005060;28;20037;-51
2022/01/29 06:49:57;;;;;;;24.73;2.58;;;;;;;;;;5009773;28;20025;-48
2022/01/29 06:52:22;;;;;;;33.03;3.33;;;;;;;;;;5002925;28;20048;-53
2022/01/29 06:54:48;;;;;;;20.85;2.08;;;;;;;;;;5010805;28;20168;-48
2022/01/29 06:57:14;;;;;;;17.80;1.75;;;;;;;;;;4986950;28;20225;-52
2022/01/29 06:59:39;;;;;;;36.30;1.85;;;;;;;;;;5007229;28;20037;-53
2022/01/29 07:02:05;;;;;;;20.08;2.13;;;;;;;;;;5000481;28;20030;-53
2022/01/29 07:04:30;;;;;;;18.27;3.05;;;;;;;;;;4999638;28;20085;-52
2022/01/29 07:06:56;;;;;;;25.05;2.85;;;;;;;;;;5001168;28;20033;-54
2022/01/29 07:09:21;;;;;;;28.60;2.55;;;;;;;;;;5002852;28;20064;-49
2022/01/29 07:11:53;;;;;;;28.80;2.35;;;;;;;;;;5004855;28;20056;-52
2022/01/29 07:14:19;;;;;;;;;;;;;;;;;;4999309;28;20492;-53
2022/01/29 07:16:44;;;;;;;17.58;2.30;;;;;;;;;;5006120;28;19961;-53
2022/01/29 07:19:10;;;;;;;18.35;2.05;;;;;;;;;;5004336;28;20485;-53
2022/01/29 07:21:36;;;;;;;14.68;1.75;;;;;;;;;;5007312;28;20145;-50
2022/01/29 07:24:02;;;;;;;17.52;1.80;;;;;;;;;;5006669;28;20440;-50
2022/01/29 07:26:28;;;;;;;14.88;2.03;;;;;;;;;;5001353;28;20038;-53
2022/01/29 07:28:53;;;;;;;12.57;1.58;;;;;;;;;;5003226;28;20483;-52
2022/01/29 07:31:19;;;;;;;43.83;1.80;;;;;;;;;;5000591;28;20046;-50
2022/01/29 07:33:45;;;;;;;19.05;1.63;;;;;;;;;;4998576;28;20034;-53
2022/01/29 07:36:10;;;;;;;23.83;1.95;;;;;;;;;;5000975;28;20036;-53
2022/01/29 07:38:36;;;;;;;17.95;2.05;;;;;;;;;;5003608;28;20088;-53
2022/01/29 07:41:01;;;;;;;11.27;1.10;;;;;;;;;;5003231;28;20128;-54
2022/01/29 07:43:27;;;;;;;24.63;3.20;;;;;;;;;;4997852;28;20061;-53
2022/01/29 07:45:52;;;;;;;14.52;1.42;;;;;;;;;;5004448;28;20033;-53
2022/01/29 07:48:18;;;;;;;8.25;0.95;;;;;;;;;;5005541;28;20342;-53
2022/01/29 07:50:43;;;;;;;16.05;1.50;;;;;;;;;;5000459;28;20037;-53
2022/01/29 07:53:09;;;;;;;15.63;2.42;;;;;;;;;;5000041;28;20034;-52
2022/01/29 07:55:34;;;;;;;12.23;1.30;;;;;;;;;;5001750;28;20038;-51
2022/01/29 07:58:01;;;;;;;16.77;1.55;;;;;;;;;;5005911;28;20124;-50
2022/01/29 08:00:28;;;;;;;17.15;2.40;;;;;;;;;;4996861;28;20044;-51
2022/01/29 08:02:53;;;;;;;6.93;0.60;;;;;;;;;;5000449;28;20077;-49
2022/01/29 08:05:19;;;;;;;11.82;1.10;;;;;;;;;;5006187;28;20034;-53
2022/01/29 08:07:44;;;;;;;6.80;1.00;;;;;;;;;;4999036;28;20385;-50
2022/01/29 08:10:10;;;;;;;12.18;1.75;;;;;;;;;;5000627;28;20552;-48
2022/01/29 08:12:35;;;;;;;9.50;0.85;;;;;;;;;;4981244;28;20033;-49
2022/01/29 08:15:05;;;;;;;13.55;1.80;;;;;;;;;;5003247;28;20034;-48
2022/01/29 08:17:31;;;;;;;6.65;0.50;;;;;;;;;;5004681;28;20123;-51
2022/01/29 08:19:57;;;;;;;12.20;0.60;;;;;;;;;;5002457;28;20508;-50
2022/01/29 08:22:23;;;;;;;14.43;1.27;;;;;;;;;;5001347;28;20037;-52
2022/01/29 08:24:49;;;;;;;9.70;0.52;;;;;;;;;;4985144;28;20696;-51
2022/01/29 08:27:14;;;;;;;5.78;0.50;;;;;;;;;;5001899;28;20453;-54
2022/01/29 08:29:40;;;;;;;6.35;1.15;;;;;;;;;;5002785;28;20034;-54
2022/01/29 08:32:06;;;;;;;10.60;1.02;;;;;;;;;;5000645;28;20018;-47
2022/01/29 08:34:31;;;;;;;7.65;0.60;;;;;;;;;;4998561;28;20576;-49
2022/01/29 08:37:04;;;;;;;11.85;0.68;;;;;;;;;;5002558;28;20116;-52
2022/01/29 08:39:30;;;;;;;7.03;0.60;;;;;;;;;;5001475;28;20034;-50
2022/01/29 08:41:56;;;;;;;6.28;0.68;;;;;;;;;;5000913;28;20087;-53
2022/01/29 08:44:22;;;;;;;2.53;0.32;;;;;;;;;;5001722;28;20519;-53
2022/01/29 08:46:47;;;;;;;3.97;0.82;;;;;;;;;;4996735;28;20033;-52
2022/01/29 08:49:13;;;;;;;10.00;1.13;;;;;;;;;;4996760;28;20029;-53
2022/01/29 08:51:39;;;;;;;4.43;0.43;;;;;;;;;;4999175;28;20025;-52
2022/01/29 08:54:05;;;;;;;7.55;0.60;;;;;;;;;;5000704;28;20040;-51
2022/01/29 08:56:30;;;;;;;4.93;1.88;;;;;;;;;;5000183;28;21636;-52
2022/01/29 08:58:56;;;;;;;9.25;0.60;;;;;;;;;;5000718;28;20413;-52
2022/01/29 09:01:22;;;;;;;8.98;0.98;;;;;;;;;;5001345;28;20504;-54
2022/01/29 09:03:47;;;;;;;4.13;1.23;;;;;;;;;;5000838;28;20026;-52
2022/01/29 09:06:13;;;;;;;12.15;1.05;;;;;;;;;;4999200;28;20030;-50
2022/01/29 09:08:40;;;;;;;4.57;0.30;;;;;;;;;;4999408;28;20065;-47
2022/01/29 09:11:06;;;;;;;12.93;1.17;;;;;;;;;;5001233;28;20502;-48
2022/01/29 09:13:31;;;;;;;9.88;0.90;;;;;;;;;;4996784;28;20046;-49
2022/01/29 09:15:57;;;;;;;13.25;0.90;;;;;;;;;;4999530;28;20045;-53
2022/01/29 09:18:23;;;;;;;9.52;1.02;;;;;;;;;;4999761;28;20125;-52
2022/01/29 09:20:49;;;;;;;11.63;1.25;;;;;;;;;;4998243;28;20081;-49
2022/01/29 09:23:14;;;;;;;7.28;1.65;;;;;;;;;;4982727;28;20034;-53
2022/01/29 09:25:41;;;;;;;11.18;1.75;;;;;;;;;;5004436;28;20034;-52
2022/01/29 09:28:07;;;;;;;8.93;0.88;;;;;;;;;;4997091;28;20026;-48
2022/01/29 09:30:34;;;;;;;12.88;2.05;;;;;;;;;;4998120;28;20030;-51
2022/01/29 09:33:00;;;;;;;13.13;2.00;;;;;;;;;;4997753;28;20036;-53
2022/01/29 09:35:27;;;;;;;17.25;2.55;;;;;;;;;;4999195;28;20046;-53
2022/01/29 09:37:53;;;;;;;17.08;1.85;;;;;;;;;;5001777;28;20037;-55
2022/01/29 09:40:19;;;;;;;17.30;2.80;;;;;;;;;;5004909;28;20088;-54
2022/01/29 09:42:46;;;;;;;20.73;2.58;;;;;;;;;;5002655;28;20540;-52
2022/01/29 09:45:14;;;;;;;22.38;2.28;;;;;;;;;;5001869;28;20064;-53
2022/01/29 09:47:44;;;;;;;30.55;3.58;;;;;;;;;;5003091;28;20030;-54
2022/01/29 09:50:11;;;;;;;25.90;4.38;;;;;;;;;;5007191;28;20036;-53
2022/01/29 09:52:37;;;;;;;26.90;4.00;;;;;;;;;;5001010;28;20041;-53
2022/01/29 09:55:04;;;;;;;18.00;2.40;;;;;;;;;;5001414;28;20493;-55
2022/01/29 09:57:29;;;;;;;31.23;4.40;;;;;;;;;;4983930;28;20048;-54
2022/01/29 09:59:55;;;;;;;44.60;3.90;;;;;;;;;;5002267;28;20026;-53
2022/01/29 10:02:21;;;;;;;42.67;5.25;;;;;;;;;;5003207;28;20528;-53
2022/01/29 10:04:46;;;;;;;68.75;7.05;;;;;;;;;;5005309;28;20034;-54
2022/01/29 10:07:14;;;;;;;61.40;8.68;;;;;;;;;;5003434;28;20034;-52
2022/01/29 10:09:39;;;;;;;62.90;7.38;;;;;;;;;;4998954;28;20743;-54
2022/01/29 10:12:16;;;;;;;66.10;5.72;;;;;;;;;;5007492;28;20070;-53
2022/01/29 10:14:49;;;;;;;68.40;6.10;;;;;;;;;;5003969;28;20416;-53
2022/01/29 10:17:41;;;;;;;43.25;5.72;;;;;;;;;;5004900;28;20132;-52
2022/01/29 10:20:20;;;;;;;75.40;9.38;;;;;;;;;;5003298;28;20038;-51
2022/01/29 10:22:48;;;;;;;43.28;4.80;;;;;;;;;;5001120;28;20049;-50
2022/01/29 10:25:30;;;;;;;60.05;6.18;;;;;;;;;;5001846;28;20030;-53
2022/01/29 10:28:15;;;;;;;53.43;6.93;;;;;;;;;;5000425;28;20033;-53
2022/01/29 10:30:49;;;;;;;34.28;4.45;;;;;;;;;;5001362;28;20060;-53
2022/01/29 10:33:31;;;;;;;66.95;6.97;;;;;;;;;;5006136;28;20473;-53
2022/01/29 10:36:00;;;;;;;55.00;6.30;;;;;;;;;;5004001;28;20633;-53
2022/01/29 10:38:40;;;;;;;47.90;5.57;;;;;;;;;;5004532;28;20048;-48
2022/01/29 10:41:24;;;;;;;55.55;4.38;;;;;;;;;;5005665;28;20571;-53
2022/01/29 10:44:10;;;;;;;54.75;5.07;;;;;;;;;;5002344;28;20121;-52
2022/01/29 10:46:43;;;;;;;54.28;5.28;;;;;;;;;;5001088;28;20021;-51
2022/01/29 10:49:17;;;;;;;54.67;5.55;;;;;;;;;;4996881;28;20084;-54
2022/01/29 10:51:54;;;;;;;54.75;5.10;;;;;;;;;;4995372;28;20052;-52
2022/01/29 10:54:20;;;;;;;59.55;5.85;;;;;;;;;;4997077;28;20180;-54
2022/01/29 10:57:00;;;;;;;48.28;5.38;;;;;;;;;;5004988;28;20034;-49
2022/01/29 10:59:28;;;;;;;48.15;4.13;;;;;;;;;;5000587;28;20053;-53
2022/01/29 11:01:59;;;;;;;44.90;5.97;;;;;;;;;;5000420;28;20083;-52
2022/01/29 11:04:28;;;;;;;46.58;4.95;;;;;;;;;;5003802;28;20026;-52
2022/01/29 11:06:56;;;;;;;45.30;6.25;;;;;;;;;;5001950;28;20129;-52
2022/01/29 11:09:22;;;;;;;44.67;3.75;;;;;;;;;;4998709;28;20401;-53
2022/01/29 11:11:48;;;;;;;45.42;5.55;;;;;;;;;;5000956;28;20025;-52
2022/01/29 11:14:18;;;;;;;66.95;5.70;;;;;;;;;;4994706;28;20061;-52
2022/01/29 11:16:45;;;;;;;49.42;5.50;;;;;;;;;;5001658;28;20469;-54
2022/01/29 11:19:11;;;;;;;33.53;4.43;;;;;;;;;;5002167;28;20405;-52
2022/01/29 11:21:37;;;;;;;66.30;6.20;;;;;;;;;;4995713;28;20033;-49
2022/01/29 11:24:06;;;;;;;36.28;4.68;;;;;;;;;;4999728;28;20077;-53
2022/01/29 11:26:32;;;;;;;45.38;4.55;;;;;;;;;;5002160;28;20057;-51
2022/01/29 11:29:36;;;;;;;48.28;5.03;;;;;;;;;;5000654;28;20249;-48
2022/01/29 11:32:23;;;;;;;56.28;6.32;;;;;;;;;;4999181;28;20116;-53
2022/01/29 11:35:05;;;;;;;50.88;6.50;;;;;;;;;;4996282;28;20127;-53
2022/01/29 11:37:44;;;;;;;48.90;5.10;;;;;;;;;;4999301;28;20021;-54
2022/01/29 11:40:26;;;;;;;30.70;4.35;;;;;;;;;;4999955;28;20026;-54
2022/01/29 11:42:53;;;;;;;45.17;4.18;;;;;;;;;;4999982;28;20169;-50
2022/01/29 11:46:15;;;;;;;55.22;5.50;;;;;;;;;;5005528;28;20358;-53
2022/01/29 11:48:56;;;;;;;24.30;3.20;;;;;;;;;;4997613;28;20034;-52
2022/01/29 11:51:47;;;;;;;41.30;4.68;;;;;;;;;;4999751;28;20029;-53
2022/01/29 11:54:16;;;;;;;37.15;3.35;;;;;;;;;;5001630;28;20121;-52
2022/01/29 11:56:42;;;;;;;43.55;4.68;;;;;;;;;;4985724;28;20687;-49
2022/01/29 11:59:20;;;;;;;42.28;5.63;;;;;;;;;;4996646;28;20113;-50
2022/01/29 12:02:28;;;;;;;37.83;4.25;;;;;;;;;;5001264;28;20618;-50
2022/01/29 12:05:00;;;;;;;27.80;4.03;;;;;;;;;;4922047;29;20534;-52
2022/01/29 12:07:33;;;;;;;33.25;3.90;;;;;;;;;;4916142;29;20024;-54
2022/01/29 12:10:14;;;;;;;46.65;4.15;;;;;;;;;;4962856;28;20682;-49
2022/01/29 12:12:41;;;;;;;54.15;4.55;;;;;;;;;;4996121;28;20168;-53
2022/01/29 12:15:10;;;;;;;32.60;3.55;;;;;;;;;;5001110;28;20044;-53
2022/01/29 12:18:05;;;;;;;44.58;4.10;;;;;;;;;;4999173;28;20062;-53
2022/01/29 12:20:30;;;;;;;31.73;4.00;;;;;;;;;;4997691;28;20615;-53
2022/01/29 12:23:03;;;;;;;25.95;3.25;;;;;;;;;;5000958;28;20406;-52
2022/01/29 12:25:28;;;;;;;;;;;;;;;;;;4997247;28;20036;-53
2022/01/29 12:27:55;;;;;;;42.60;4.70;;;;;;;;;;5001002;28;19921;-54
2022/01/29 12:30:29;;;;;;;27.88;2.88;;;;;;;;;;4999626;28;20176;-54
2022/01/29 12:33:02;;;;;;;28.15;3.00;;;;;;;;;;5003602;28;20076;-53
2022/01/29 12:35:40;;;;;;;34.50;3.72;;;;;;;;;;4999778;28;20665;-52
2022/01/29 12:38:08;;;;;;;40.25;3.90;;;;;;;;;;4998203;28;20041;-53
2022/01/29 12:40:39;;;;;;;41.65;4.47;;;;;;;;;;5002325;28;20030;-51
2022/01/29 12:43:23;;;;;;;28.08;2.95;;;;;;;;;;5001762;28;20540;-53
2022/01/29 12:45:50;;;;;;;33.08;4.55;;;;;;;;;;4999755;28;20037;-53
2022/01/29 12:48:18;;;;;;;25.35;3.13;;;;;;;;;;4994842;28;20042;-55
2022/01/29 12:50:44;;;;;;;19.98;1.95;;;;;;;;;;5002833;28;20503;-55
2022/01/29 12:53:18;;;;;;;40.20;4.72;;;;;;;;;;4996125;28;20029;-55
2022/01/29 12:55:57;;;;;;;16.65;3.17;;;;;;;;;;5004706;28;20030;-53
2022/01/29 12:58:28;;;;;;;23.67;3.00;;;;;;;;;;4996516;28;20034;-53
2022/01/29 13:01:04;;;;;;;26.90;3.65;;;;;;;;;;4996500;28;20041;-54
2022/01/29 13:03:29;;;;;;;28.30;2.83;;;;;;;;;;4997128;28;20037;-53
2022/01/29 13:06:03;;;;;;;31.38;4.28;;;;;;;;;;5001825;28;20042;-53
2022/01/29 13:08:28;;;;;;;17.77;3.00;;;;;;;;;;4998771;28;20033;-54
2022/01/29 13:10:54;;;;;;;34.92;4.13;;;;;;;;;;5003473;28;20040;-53
2022/01/29 13:13:45;;;;;;;21.88;2.65;;;;;;;;;;4998762;28;20149;-54
2022/01/29 13:16:11;;;;;;;18.55;2.75;;;;;;;;;;4994803;28;20037;-54
2022/01/29 13:18:37;;;;;;;24.92;3.03;;;;;;;;;;4996882;28;20250;-54
2022/01/29 13:21:03;;;;;;;20.63;2.88;;;;;;;;;;4993482;28;20116;-52
2022/01/29 13:23:33;;;;;;;24.02;2.60;;;;;;;;;;4996975;28;20076;-51
2022/01/29 13:25:59;;;;;;;24.48;2.75;;;;;;;;;;4997197;28;20030;-53
2022/01/29 13:28:28;;;;;;;34.80;2.90;;;;;;;;;;5001991;28;20048;-55
2022/01/29 13:31:03;;;;;;;18.70;2.67;;;;;;;;;;4995871;28;20053;-53
2022/01/29 13:33:33;;;;;;;21.60;3.03;;;;;;;;;;4995185;28;20394;-52
2022/01/29 13:35:59;;;;;;;27.13;3.58;;;;;;;;;;5000171;28;20040;-54
2022/01/29 13:38:32;;;;;;;26.83;2.85;;;;;;;;;;5002233;28;20099;-54
2022/01/29 13:41:00;;;;;;;31.83;2.80;;;;;;;;;;4999239;28;20030;-53
2022/01/29 13:43:34;;;;;;;24.35;3.63;;;;;;;;;;4997939;28;20037;-52
2022/01/29 13:46:08;;;;;;;25.38;2.85;;;;;;;;;;4997830;28;20121;-50
2022/01/29 13:48:54;;;;;;;29.50;3.38;;;;;;;;;;5004103;28;20083;-53
2022/01/29 13:51:31;;;;;;;24.02;2.78;;;;;;;;;;4999084;28;20112;-52
2022/01/29 13:53:58;;;;;;;32.17;2.30;;;;;;;;;;4983544;28;20545;-50
2022/01/29 13:56:25;;;;;;;24.60;3.47;;;;;;;;;;5000517;28;20030;-53
2022/01/29 13:58:57;;;;;;;16.17;2.08;;;;;;;;;;5000182;28;20475;-52
2022/01/29 14:01:46;;;;;;;22.70;2.10;;;;;;;;;;5002557;28;20288;-52
2022/01/29 14:04:21;;;;;;;29.52;3.60;;;;;;;;;;4988225;28;20528;-53
2022/01/29 14:06:55;;;;;;;21.20;1.88;;;;;;;;;;4999150;28;20025;-51
2022/01/29 14:09:27;;;;;;;21.08;2.55;;;;;;;;;;4977504;28;20033;-53
2022/01/29 14:12:02;;;;;;;17.58;2.20;;;;;;;;;;5003565;28;20040;-51
2022/01/29 14:14:37;;;;;;;12.68;2.13;;;;;;;;;;4996122;28;20050;-53
2022/01/29 14:17:05;;;;;;;16.88;2.17;;;;;;;;;;5000530;28;20030;-50
2022/01/29 14:19:31;;;;;;;14.00;2.08;;;;;;;;;;5002847;28;20033;-55
2022/01/29 14:21:59;;;;;;;26.45;3.10;;;;;;;;;;5005120;28;20442;-54
2022/01/29 14:24:25;;;;;;;26.15;2.22;;;;;;;;;;5000968;28;20069;-52
2022/01/29 14:26:52;;;;;;;20.95;2.58;;;;;;;;;;5003287;28;20417;-53
2022/01/29 14:29:17;;;;;;;26.30;3.40;;;;;;;;;;5005937;28;20036;-51
2022/01/29 14:31:43;;;;;;;22.17;3.20;;;;;;;;;;5003966;28;20025;-53
2022/01/29 14:34:09;;;;;;;35.22;3.83;;;;;;;;;;5003761;28;20030;-53
2022/01/29 14:36:35;;;;;;;29.38;4.32;;;;;;;;;;5004083;28;20477;-54
2022/01/29 14:39:05;;;;;;;16.70;2.35;;;;;;;;;;5005453;28;20461;-53
2022/01/29 14:41:32;;;;;;;25.88;3.17;;;;;;;;;;5003812;28;20026;-53
2022/01/29 14:43:58;;;;;;;24.63;4.85;;;;;;;;;;5005077;28;20384;-53
2022/01/29 14:46:24;;;;;;;29.60;3.35;;;;;;;;;;5005289;28;20030;-53
2022/01/29 14:48:51;;;;;;;24.00;3.10;;;;;;;;;;5006001;28;20247;-53
2022/01/29 14:51:19;;;;;;;27.80;3.75;;;;;;;;;;5004684;28;20114;-53
2022/01/29 14:53:45;;;;;;;21.77;2.92;;;;;;;;;;5003640;28;20034;-53